createdAt,value
2023-11-06T00:39:54.780Z,10.53
2023-11-06T00:52:58.463Z,10.49
2023-11-06T00:58:03.431Z,10.50
2023-11-06T01:03:07.385Z,10.48
2023-11-06T01:08:49.256Z,10.46
2023-11-06T01:14:43.875Z,10.50
2023-11-06T01:20:20.632Z,10.53
2023-11-06T01:25:25.027Z,10.53
2023-11-06T01:30:35.530Z,10.56
2023-11-06T01:36:29.894Z,10.56
2023-11-06T01:41:55.444Z,10.57
2023-11-06T01:47:00.007Z,10.62
2023-11-06T02:06:21.783Z,10.68
2023-11-06T02:11:51.806Z,10.71
2023-11-06T02:17:11.141Z,10.71
2023-11-06T02:30:03.614Z,10.80
2023-11-06T02:42:56.810Z,10.86
2023-11-06T02:57:10.231Z,10.78
2023-11-06T03:11:25.198Z,10.72
2023-11-06T03:34:34.827Z,10.74
2023-11-06T03:47:40.428Z,10.76
2023-11-06T04:07:12.181Z,10.59
2023-11-06T04:12:16.032Z,10.52
2023-11-06T04:25:41.403Z,10.50
2023-11-06T04:37:51.610Z,10.53
2023-11-06T04:47:59.410Z,10.53
2023-11-06T05:01:45.514Z,10.58
2023-11-06T05:06:49.446Z,10.57
2023-11-06T05:11:55.587Z,10.58
2023-11-06T05:17:25.034Z,10.60
2023-11-06T05:23:06.546Z,10.60
2023-11-06T05:29:02.118Z,10.61
2023-11-06T05:34:06.254Z,10.60
2023-11-06T06:09:34.772Z,10.58
2023-11-06T06:14:39.395Z,10.60
2023-11-06T06:19:43.313Z,10.61
2023-11-06T06:32:16.309Z,10.66
2023-11-06T06:53:52.722Z,10.67
2023-11-06T07:07:30.642Z,10.61
2023-11-06T07:12:34.388Z,10.60
2023-11-06T07:32:07.101Z,10.52
2023-11-06T07:37:36.831Z,10.51
2023-11-06T07:42:41.181Z,10.50
2023-11-06T07:47:45.172Z,10.54
2023-11-06T07:52:48.939Z,10.57
2023-11-06T07:57:53.377Z,10.64
2023-11-06T08:03:23.353Z,10.68
2023-11-06T08:16:29.462Z,10.63
2023-11-06T08:21:36.856Z,10.65
2023-11-06T08:27:16.893Z,10.62
2023-11-06T08:33:36.954Z,10.59
2023-11-06T08:46:35.853Z,10.49
2023-11-06T08:52:16.628Z,10.54
2023-11-06T08:58:17.604Z,10.66
2023-11-06T09:03:49.766Z,10.84
2023-11-06T09:23:29.534Z,10.91
2023-11-06T09:35:59.073Z,10.90
2023-11-06T09:42:23.444Z,10.74
2023-11-06T09:47:28.951Z,10.64
2023-11-06T09:53:30.945Z,10.57
2023-11-06T10:00:06.503Z,10.56
2023-11-06T10:05:22.275Z,10.58
2023-11-06T10:10:30.963Z,10.58
2023-11-06T10:15:38.700Z,10.60
2023-11-06T10:20:52.613Z,10.66
2023-11-06T10:26:23.858Z,10.69
2023-11-06T10:31:45.939Z,10.71
2023-11-06T10:37:43.773Z,10.72
2023-11-06T10:44:10.039Z,10.73
2023-11-06T10:49:55.793Z,10.74
2023-11-06T10:55:06.458Z,10.71
2023-11-06T11:01:55.987Z,10.70
2023-11-06T11:07:01.822Z,10.70
2023-11-06T11:20:06.312Z,10.70
2023-11-06T11:25:11.019Z,10.69
2023-11-06T11:30:15.116Z,10.68
2023-11-06T11:42:27.365Z,10.73
2023-11-06T11:47:57.280Z,10.75
2023-11-06T11:53:01.433Z,10.74
2023-11-06T11:59:37.533Z,10.75
2023-11-06T12:04:41.582Z,10.76
2023-11-06T12:11:02.287Z,10.74
2023-11-06T12:16:09.719Z,10.73
2023-11-06T12:22:35.214Z,10.72
2023-11-06T12:37:02.370Z,10.86
2023-11-06T12:43:34.651Z,10.89
2023-11-06T12:56:09.453Z,10.88
2023-11-06T13:09:15.655Z,10.91
2023-11-06T13:15:11.974Z,10.96
2023-11-06T13:20:34.427Z,11.05
2023-11-06T14:03:49.680Z,11.12
2023-11-06T14:08:57.759Z,11.14
2023-11-06T14:14:05.901Z,11.15
2023-11-06T14:19:09.689Z,11.15
2023-11-06T14:24:16.353Z,11.15
2023-11-06T14:29:22.657Z,11.16
2023-11-06T14:34:27.165Z,11.16
2023-11-06T14:39:31.458Z,11.18
2023-11-06T14:44:35.433Z,11.20
2023-11-06T14:58:17.661Z,11.24
2023-11-06T15:10:37.309Z,11.24
2023-11-06T15:15:43.982Z,11.24
2023-11-06T15:35:17.664Z,11.22
2023-11-06T15:40:47.727Z,11.23
2023-11-06T15:45:51.852Z,11.24
2023-11-06T15:50:55.908Z,11.26
2023-11-06T15:56:00.051Z,11.27
2023-11-06T16:01:31.973Z,11.26
2023-11-06T16:07:02.617Z,11.27
2023-11-06T16:12:07.265Z,11.24
2023-11-06T16:17:12.758Z,11.22
2023-11-06T16:28:07.383Z,11.15
2023-11-06T16:33:11.860Z,11.11
2023-11-06T16:38:16.574Z,11.08
2023-11-06T16:43:20.411Z,11.04
2023-11-06T16:48:32.103Z,10.97
2023-11-06T16:53:37.590Z,10.92
2023-11-06T17:05:53.469Z,10.84
2023-11-06T17:11:24.859Z,10.78
2023-11-06T17:16:28.905Z,10.71
2023-11-06T17:21:33.092Z,10.64
2023-11-06T17:35:14.671Z,10.44
2023-11-06T17:40:18.486Z,10.34
2023-11-06T17:45:22.623Z,10.29
2023-11-06T17:57:20.581Z,10.22
2023-11-06T18:03:11.731Z,10.19
2023-11-06T18:08:34.897Z,10.15
2023-11-06T18:13:45.452Z,10.10
2023-11-06T18:18:50.870Z,10.11
2023-11-06T18:23:55.879Z,10.17
2023-11-06T18:28:59.707Z,10.22
2023-11-06T18:34:03.363Z,10.24
2023-11-06T18:39:08.148Z,10.25
2023-11-06T18:44:13.615Z,10.26
2023-11-06T18:49:18.135Z,10.28
2023-11-06T18:54:23.039Z,10.29
2023-11-06T18:59:27.180Z,10.25
2023-11-06T19:04:32.599Z,10.25
2023-11-06T19:09:39.948Z,10.28
2023-11-06T19:14:43.979Z,10.28
2023-11-06T19:19:49.965Z,10.32
2023-11-06T19:24:57.200Z,10.33
2023-11-06T19:30:02.217Z,10.33
2023-11-06T19:35:10.384Z,10.32
2023-11-06T19:40:15.212Z,10.32
2023-11-06T19:45:19.222Z,10.32
2023-11-06T19:50:24.105Z,10.32
2023-11-06T19:55:30.606Z,10.34
2023-11-06T20:01:56.843Z,10.37
2023-11-06T20:21:51.074Z,10.27
2023-11-06T20:27:21.060Z,10.30
2023-11-06T20:32:25.913Z,10.29
2023-11-06T20:37:29.720Z,10.29
2023-11-06T20:42:35.943Z,10.27
2023-11-06T20:47:42.377Z,10.26
2023-11-06T20:52:47.418Z,10.19
2023-11-06T21:05:10.066Z,10.00
2023-11-06T21:10:39.371Z,9.90
2023-11-06T21:15:44.604Z,9.78
2023-11-06T21:20:48.677Z,9.70
2023-11-06T21:25:52.659Z,9.64
2023-11-06T21:30:59.173Z,9.61
2023-11-06T21:36:03.334Z,9.56
2023-11-06T21:41:07.231Z,9.52
2023-11-06T21:46:12.022Z,9.49
2023-11-06T21:51:16.305Z,9.48
2023-11-06T21:56:20.234Z,9.44
2023-11-06T22:01:24.265Z,9.39
2023-11-06T22:06:29.505Z,9.39
2023-11-06T22:26:17.902Z,9.46
2023-11-06T22:31:50.399Z,9.48
2023-11-06T22:36:54.207Z,9.52
2023-11-06T22:42:04.902Z,9.55
2023-11-06T22:47:09.095Z,9.63
2023-11-06T22:52:12.990Z,9.65
2023-11-06T22:57:17.565Z,9.69
2023-11-06T23:02:24.560Z,9.73
2023-11-06T23:07:28.508Z,9.77
2023-11-06T23:12:44.577Z,9.80
2023-11-06T23:17:48.786Z,9.79
2023-11-06T23:22:52.629Z,9.79
2023-11-06T23:27:57.372Z,9.77
2023-11-06T23:33:01.911Z,9.78
2023-11-06T23:38:05.972Z,9.76
2023-11-06T23:43:22.920Z,9.74
2023-11-06T23:48:27.220Z,9.71
2023-11-06T23:53:31.299Z,9.69
